createdAt,value
2019-05-05T00:05:54.796Z,3.60
2019-05-05T00:12:10.130Z,3.33
2019-05-05T00:18:17.815Z,4.20
2019-05-05T00:24:24.394Z,5.43
2019-05-05T00:30:30.394Z,3.70
2019-05-05T00:36:36.318Z,4.03
2019-05-05T00:42:42.175Z,5.17
2019-05-05T00:48:48.640Z,4.17
2019-05-05T00:54:55.566Z,4.70
2019-05-05T01:01:14.396Z,6.73
2019-05-05T01:07:21.120Z,7.90
2019-05-05T01:13:26.936Z,7.17
2019-05-05T01:19:34.852Z,6.03
2019-05-05T01:25:40.171Z,5.33
2019-05-05T01:31:46.216Z,5.40
2019-05-05T01:37:58.064Z,5.47
2019-05-05T01:44:04.994Z,5.60
2019-05-05T01:50:18.314Z,5.13
2019-05-05T01:56:19.708Z,4.80
2019-05-05T02:02:25.712Z,4.67
2019-05-05T02:08:31.461Z,4.70
2019-05-05T02:14:37.587Z,5.27
2019-05-05T02:21:05.230Z,5.33
2019-05-05T02:27:11.066Z,5.90
2019-05-05T02:33:18.532Z,7.00
2019-05-05T02:39:24.287Z,6.03
2019-05-05T02:45:56.263Z,5.60
2019-05-05T02:52:04.850Z,5.07
2019-05-05T02:58:10.451Z,6.23
2019-05-05T03:04:17.092Z,5.83
2019-05-05T03:10:24.574Z,5.60
2019-05-05T03:16:36.315Z,5.60
2019-05-05T03:22:43.452Z,6.30
2019-05-05T03:28:54.723Z,6.63
2019-05-05T03:35:00.757Z,6.50
2019-05-05T03:41:09.574Z,8.40
2019-05-05T03:47:15.760Z,6.13
2019-05-05T03:53:24.418Z,5.57
2019-05-05T03:59:29.662Z,10.73
2019-05-05T04:05:57.522Z,7.70
2019-05-05T04:12:04.406Z,7.00
2019-05-05T04:18:18.194Z,7.13
2019-05-05T04:24:23.957Z,7.27
2019-05-05T04:30:29.681Z,8.07
2019-05-05T04:36:35.887Z,7.10
2019-05-05T04:42:44.129Z,8.90
2019-05-05T04:48:58.507Z,6.97
2019-05-05T04:55:04.430Z,6.07
2019-05-05T05:01:10.370Z,6.47
2019-05-05T05:07:16.919Z,7.67
2019-05-05T05:13:24.451Z,6.73
2019-05-05T05:19:30.222Z,7.13
2019-05-05T05:25:36.034Z,7.30
2019-05-05T05:31:41.864Z,8.70
2019-05-05T05:37:49.312Z,8.70
2019-05-05T05:44:20.000Z,9.33
2019-05-05T05:50:38.781Z,7.33
2019-05-05T05:56:44.798Z,8.03
2019-05-05T06:02:51.311Z,9.40
2019-05-05T06:08:57.217Z,9.10
2019-05-05T06:15:03.861Z,6.47
2019-05-05T06:21:10.106Z,9.00
2019-05-05T06:27:15.843Z,6.87
2019-05-05T06:33:21.664Z,8.97
2019-05-05T06:39:27.493Z,11.03
2019-05-05T06:45:44.761Z,12.40
2019-05-05T06:51:50.575Z,9.80
2019-05-05T06:57:56.360Z,16.53
2019-05-05T07:04:03.461Z,15.37
2019-05-05T07:10:10.336Z,19.60
2019-05-05T07:16:16.238Z,20.47
2019-05-05T07:22:24.050Z,21.27
2019-05-05T07:28:30.035Z,25.20
2019-05-05T07:34:54.612Z,15.60
2019-05-05T07:41:01.049Z,15.57
2019-05-05T07:47:06.783Z,19.47
2019-05-05T07:53:17.514Z,15.03
2019-05-05T07:59:20.272Z,13.83
2019-05-05T08:05:26.513Z,11.07
2019-05-05T08:11:34.302Z,14.00
2019-05-05T08:17:57.924Z,16.70
2019-05-05T08:24:15.600Z,20.37
2019-05-05T08:30:44.117Z,21.33
2019-05-05T08:36:50.040Z,10.63
2019-05-05T08:42:55.988Z,14.10
2019-05-05T08:49:01.927Z,13.67
2019-05-05T08:55:09.780Z,13.07
2019-05-05T09:01:18.869Z,10.90
2019-05-05T09:07:24.609Z,11.87
2019-05-05T09:13:30.463Z,13.63
2019-05-05T09:19:37.332Z,12.97
2019-05-05T09:25:50.566Z,11.00
2019-05-05T09:31:56.407Z,17.43
2019-05-05T09:38:04.015Z,14.07
2019-05-05T09:44:09.890Z,15.90
2019-05-05T09:50:15.766Z,15.40
2019-05-05T09:56:23.623Z,15.30
2019-05-05T10:02:29.275Z,17.53
2019-05-05T10:08:35.171Z,13.83
2019-05-05T10:14:40.989Z,13.17
2019-05-05T10:20:46.848Z,11.37
2019-05-05T10:26:54.312Z,10.30
2019-05-05T10:33:00.346Z,11.80
2019-05-05T10:39:12.884Z,13.27
2019-05-05T10:45:19.857Z,12.83
2019-05-05T10:51:25.881Z,12.67
2019-05-05T10:57:31.669Z,17.70
2019-05-05T11:03:37.461Z,13.67
2019-05-05T11:09:44.374Z,10.53
2019-05-05T11:15:50.351Z,13.10
2019-05-05T11:21:56.374Z,9.93
2019-05-05T11:28:03.780Z,12.53
2019-05-05T11:34:15.067Z,9.43
2019-05-05T11:40:39.947Z,13.67
2019-05-05T11:46:45.737Z,8.50
2019-05-05T11:52:51.559Z,9.47
2019-05-05T11:58:58.089Z,8.63
2019-05-05T12:05:05.818Z,6.77
2019-05-05T12:11:14.856Z,6.33
2019-05-05T12:17:35.940Z,4.37
2019-05-05T12:23:44.216Z,7.30
2019-05-05T12:29:54.553Z,7.33
2019-05-05T12:36:01.287Z,10.20
2019-05-05T12:42:07.148Z,7.80
2019-05-05T12:48:18.175Z,6.33
2019-05-05T12:54:24.620Z,8.07
2019-05-05T13:00:30.640Z,3.27
2019-05-05T13:06:37.609Z,3.43
2019-05-05T13:12:43.754Z,3.30
2019-05-05T13:18:49.694Z,3.47
2019-05-05T13:25:13.854Z,7.27
2019-05-05T13:31:21.782Z,4.17
2019-05-05T13:37:27.433Z,3.87
2019-05-05T13:43:34.256Z,7.00
2019-05-05T13:49:43.595Z,7.40
2019-05-05T13:55:49.271Z,6.60
2019-05-05T14:01:55.298Z,7.53
2019-05-05T14:08:01.152Z,7.07
2019-05-05T14:14:06.897Z,3.13
2019-05-05T14:20:14.803Z,3.53
2019-05-05T14:26:25.725Z,3.30
2019-05-05T14:32:32.065Z,6.33
2019-05-05T14:38:49.432Z,6.47
2019-05-05T14:44:55.199Z,9.97
2019-05-05T14:51:01.011Z,4.33
2019-05-05T14:57:06.772Z,6.90
2019-05-05T15:03:13.987Z,4.43
2019-05-05T15:09:27.616Z,3.10
2019-05-05T15:15:33.466Z,4.00
2019-05-05T15:21:39.236Z,3.53
2019-05-05T15:27:45.178Z,5.40
2019-05-05T15:33:50.959Z,4.13
2019-05-05T15:39:56.746Z,8.17
2019-05-05T15:46:04.508Z,6.00
2019-05-05T15:52:10.609Z,3.83
2019-05-05T15:58:16.489Z,4.77
2019-05-05T16:04:23.631Z,6.23
2019-05-05T16:10:29.918Z,7.80
2019-05-05T16:16:43.700Z,6.07
2019-05-05T16:23:00.811Z,4.33
2019-05-05T16:29:06.731Z,6.47
2019-05-05T16:35:14.599Z,7.53
2019-05-05T16:41:20.448Z,8.17
2019-05-05T16:47:26.272Z,6.03
2019-05-05T16:53:36.062Z,6.27
2019-05-05T16:59:41.909Z,6.63
2019-05-05T17:05:47.709Z,6.50
2019-05-05T17:12:11.613Z,7.17
2019-05-05T17:18:35.446Z,6.40
2019-05-05T17:24:40.012Z,7.33
2019-05-05T17:30:45.871Z,5.67
2019-05-05T17:36:53.503Z,4.90
2019-05-05T17:43:25.128Z,5.30
2019-05-05T17:49:43.434Z,5.40
2019-05-05T17:55:49.202Z,4.67
2019-05-05T18:01:55.039Z,4.33
2019-05-05T18:08:01.113Z,4.43
2019-05-05T18:14:14.506Z,3.63
2019-05-05T18:20:20.497Z,7.97
2019-05-05T18:26:26.379Z,5.43
2019-05-05T18:32:34.231Z,6.00
2019-05-05T18:38:40.554Z,5.33
2019-05-05T18:44:48.890Z,5.23
2019-05-05T18:50:54.770Z,5.40
2019-05-05T18:57:00.829Z,5.30
2019-05-05T19:03:17.758Z,4.47
2019-05-05T19:09:19.660Z,3.23
2019-05-05T19:15:25.748Z,4.27
2019-05-05T19:21:35.989Z,5.20
2019-05-05T19:27:42.627Z,3.13
2019-05-05T19:33:48.552Z,5.73
2019-05-05T19:39:54.424Z,4.57
2019-05-05T19:46:00.342Z,7.17
2019-05-05T19:52:06.264Z,7.23
2019-05-05T19:58:13.911Z,5.63
2019-05-05T20:04:19.875Z,6.90
2019-05-05T20:10:25.906Z,3.37
2019-05-05T20:16:50.698Z,7.20
2019-05-05T20:22:56.656Z,6.10
2019-05-05T20:29:13.655Z,7.77
2019-05-05T20:35:33.834Z,7.43
2019-05-05T20:41:39.791Z,5.40
2019-05-05T20:47:45.577Z,7.27
2019-05-05T20:53:51.457Z,6.70
2019-05-05T20:59:57.455Z,7.43
2019-05-05T21:06:04.420Z,6.37
2019-05-05T21:12:10.423Z,4.13
2019-05-05T21:18:17.525Z,5.53
2019-05-05T21:24:23.937Z,4.60
2019-05-05T21:30:29.974Z,4.77
2019-05-05T21:36:35.886Z,5.77
2019-05-05T21:42:41.717Z,8.33
2019-05-05T21:48:47.566Z,5.77
2019-05-05T21:55:00.850Z,9.87
2019-05-05T22:01:15.186Z,8.33
2019-05-05T22:07:21.057Z,6.73
2019-05-05T22:13:27.309Z,6.37
2019-05-05T22:19:36.237Z,5.03
2019-05-05T22:25:43.781Z,7.80
2019-05-05T22:31:49.945Z,6.20
2019-05-05T22:37:55.891Z,8.27
2019-05-05T22:44:04.337Z,9.97
2019-05-05T22:50:09.597Z,7.70
2019-05-05T22:56:15.308Z,7.57
2019-05-05T23:02:24.463Z,8.53
2019-05-05T23:08:30.268Z,7.53
2019-05-05T23:14:36.020Z,7.10
2019-05-05T23:20:59.049Z,7.80
2019-05-05T23:27:06.481Z,6.30
2019-05-05T23:33:14.318Z,7.70
2019-05-05T23:39:20.130Z,9.83
2019-05-05T23:45:25.970Z,8.30
2019-05-05T23:51:32.624Z,6.37
2019-05-05T23:57:39.867Z,6.40
